sensor_id;sensor_type;location;lat;lon;timestamp;P1;durP1;ratioP1;P2;durP2;ratioP2
3347;SDS011;1687;49.540;8.574;2023-03-01T00:01:09;11.80;;;4.97;;
3347;SDS011;1687;49.540;8.574;2023-03-01T00:03:47;14.30;;;5.90;;
3347;SDS011;1687;49.540;8.574;2023-03-01T00:06:13;12.20;;;4.37;;
3347;SDS011;1687;49.540;8.574;2023-03-01T00:08:39;8.73;;;4.60;;
3347;SDS011;1687;49.540;8.574;2023-03-01T00:13:40;10.90;;;4.17;;
3347;SDS011;1687;49.540;8.574;2023-03-01T00:16:07;10.87;;;4.70;;
3347;SDS011;1687;49.540;8.574;2023-03-01T00:18:37;11.17;;;3.53;;
3347;SDS011;1687;49.540;8.574;2023-03-01T00:21:03;10.27;;;4.30;;
3347;SDS011;1687;49.540;8.574;2023-03-01T00:23:30;11.37;;;4.67;;
3347;SDS011;1687;49.540;8.574;2023-03-01T00:25:56;9.30;;;4.40;;
3347;SDS011;1687;49.540;8.574;2023-03-01T00:28:22;7.60;;;3.97;;
3347;SDS011;1687;49.540;8.574;2023-03-01T00:30:48;10.67;;;4.47;;
3347;SDS011;1687;49.540;8.574;2023-03-01T00:33:14;10.43;;;5.57;;
3347;SDS011;1687;49.540;8.574;2023-03-01T00:35:39;11.90;;;4.57;;
3347;SDS011;1687;49.540;8.574;2023-03-01T00:38:05;6.60;;;3.77;;
3347;SDS011;1687;49.540;8.574;2023-03-01T00:40:32;10.50;;;5.90;;
3347;SDS011;1687;49.540;8.574;2023-03-01T00:42:59;18.57;;;7.50;;
3347;SDS011;1687;49.540;8.574;2023-03-01T00:45:26;12.80;;;6.17;;
3347;SDS011;1687;49.540;8.574;2023-03-01T00:47:52;14.90;;;4.80;;
3347;SDS011;1687;49.540;8.574;2023-03-01T00:50:18;9.83;;;5.87;;
3347;SDS011;1687;49.540;8.574;2023-03-01T00:52:44;15.00;;;4.83;;
3347;SDS011;1687;49.540;8.574;2023-03-01T00:55:10;10.40;;;4.23;;
3347;SDS011;1687;49.540;8.574;2023-03-01T00:57:37;11.17;;;5.87;;
3347;SDS011;1687;49.540;8.574;2023-03-01T01:00:04;16.53;;;6.77;;
3347;SDS011;1687;49.540;8.574;2023-03-01T01:02:32;13.13;;;5.00;;
3347;SDS011;1687;49.540;8.574;2023-03-01T01:04:58;33.57;;;7.00;;
3347;SDS011;1687;49.540;8.574;2023-03-01T01:07:24;9.77;;;5.33;;
3347;SDS011;1687;49.540;8.574;2023-03-01T01:09:50;7.70;;;4.20;;
3347;SDS011;1687;49.540;8.574;2023-03-01T01:12:15;7.57;;;4.20;;
3347;SDS011;1687;49.540;8.574;2023-03-01T01:14:41;11.63;;;4.70;;
3347;SDS011;1687;49.540;8.574;2023-03-01T01:17:07;10.00;;;4.80;;
3347;SDS011;1687;49.540;8.574;2023-03-01T01:19:34;12.47;;;5.80;;
3347;SDS011;1687;49.540;8.574;2023-03-01T01:22:00;15.13;;;4.90;;
3347;SDS011;1687;49.540;8.574;2023-03-01T01:24:25;13.00;;;6.50;;
3347;SDS011;1687;49.540;8.574;2023-03-01T01:26:51;15.53;;;6.60;;
3347;SDS011;1687;49.540;8.574;2023-03-01T01:29:17;10.90;;;4.27;;
3347;SDS011;1687;49.540;8.574;2023-03-01T01:31:42;19.30;;;6.67;;
3347;SDS011;1687;49.540;8.574;2023-03-01T01:34:12;17.43;;;7.90;;
3347;SDS011;1687;49.540;8.574;2023-03-01T01:36:40;13.60;;;3.87;;
3347;SDS011;1687;49.540;8.574;2023-03-01T01:39:06;11.13;;;5.57;;
3347;SDS011;1687;49.540;8.574;2023-03-01T01:41:32;24.00;;;6.03;;
3347;SDS011;1687;49.540;8.574;2023-03-01T01:44:15;10.87;;;5.50;;
3347;SDS011;1687;49.540;8.574;2023-03-01T01:46:52;13.30;;;4.60;;
3347;SDS011;1687;49.540;8.574;2023-03-01T01:49:25;29.30;;;7.87;;
3347;SDS011;1687;49.540;8.574;2023-03-01T01:57:11;12.63;;;5.23;;
3347;SDS011;1687;49.540;8.574;2023-03-01T01:59:46;17.43;;;5.93;;
3347;SDS011;1687;49.540;8.574;2023-03-01T02:02:18;18.67;;;5.10;;
3347;SDS011;1687;49.540;8.574;2023-03-01T02:04:44;9.90;;;5.20;;
3347;SDS011;1687;49.540;8.574;2023-03-01T02:07:14;11.77;;;4.73;;
3347;SDS011;1687;49.540;8.574;2023-03-01T02:09:47;10.93;;;5.57;;
3347;SDS011;1687;49.540;8.574;2023-03-01T02:12:16;18.40;;;5.93;;
3347;SDS011;1687;49.540;8.574;2023-03-01T02:14:47;16.33;;;5.60;;
3347;SDS011;1687;49.540;8.574;2023-03-01T02:17:12;11.20;;;5.07;;
3347;SDS011;1687;49.540;8.574;2023-03-01T02:22:32;18.17;;;5.93;;
3347;SDS011;1687;49.540;8.574;2023-03-01T02:30:43;11.93;;;5.40;;
3347;SDS011;1687;49.540;8.574;2023-03-01T02:33:33;10.53;;;6.10;;
3347;SDS011;1687;49.540;8.574;2023-03-01T02:36:09;26.47;;;7.40;;
3347;SDS011;1687;49.540;8.574;2023-03-01T02:38:43;17.73;;;6.23;;
3347;SDS011;1687;49.540;8.574;2023-03-01T02:41:10;19.40;;;9.70;;
3347;SDS011;1687;49.540;8.574;2023-03-01T02:43:39;16.67;;;8.13;;
3347;SDS011;1687;49.540;8.574;2023-03-01T02:46:07;13.00;;;5.80;;
3347;SDS011;1687;49.540;8.574;2023-03-01T02:48:44;18.87;;;6.77;;
3347;SDS011;1687;49.540;8.574;2023-03-01T02:51:42;12.80;;;5.70;;
3347;SDS011;1687;49.540;8.574;2023-03-01T02:56:55;23.30;;;6.97;;
3347;SDS011;1687;49.540;8.574;2023-03-01T02:59:22;18.50;;;6.00;;
3347;SDS011;1687;49.540;8.574;2023-03-01T03:01:52;12.57;;;6.20;;
3347;SDS011;1687;49.540;8.574;2023-03-01T03:04:18;14.47;;;6.37;;
3347;SDS011;1687;49.540;8.574;2023-03-01T03:06:46;19.67;;;7.10;;
3347;SDS011;1687;49.540;8.574;2023-03-01T03:09:15;14.43;;;7.13;;
3347;SDS011;1687;49.540;8.574;2023-03-01T03:11:42;19.40;;;6.60;;
3347;SDS011;1687;49.540;8.574;2023-03-01T03:14:11;14.77;;;5.77;;
3347;SDS011;1687;49.540;8.574;2023-03-01T03:16:41;10.37;;;5.17;;
3347;SDS011;1687;49.540;8.574;2023-03-01T03:19:10;12.70;;;5.00;;
3347;SDS011;1687;49.540;8.574;2023-03-01T03:21:36;19.40;;;5.03;;
3347;SDS011;1687;49.540;8.574;2023-03-01T03:24:02;14.20;;;6.17;;
3347;SDS011;1687;49.540;8.574;2023-03-01T03:26:28;30.63;;;8.00;;
3347;SDS011;1687;49.540;8.574;2023-03-01T03:28:54;18.77;;;8.30;;
3347;SDS011;1687;49.540;8.574;2023-03-01T03:31:19;20.13;;;5.70;;
3347;SDS011;1687;49.540;8.574;2023-03-01T03:33:45;9.43;;;5.97;;
3347;SDS011;1687;49.540;8.574;2023-03-01T03:36:18;16.50;;;5.67;;
3347;SDS011;1687;49.540;8.574;2023-03-01T03:38:46;11.67;;;5.70;;
3347;SDS011;1687;49.540;8.574;2023-03-01T03:41:12;15.10;;;6.37;;
3347;SDS011;1687;49.540;8.574;2023-03-01T03:43:38;8.60;;;5.07;;
3347;SDS011;1687;49.540;8.574;2023-03-01T03:46:07;10.77;;;4.83;;
3347;SDS011;1687;49.540;8.574;2023-03-01T03:48:35;10.07;;;4.40;;
3347;SDS011;1687;49.540;8.574;2023-03-01T03:51:09;17.63;;;5.00;;
3347;SDS011;1687;49.540;8.574;2023-03-01T03:53:39;14.30;;;6.20;;
3347;SDS011;1687;49.540;8.574;2023-03-01T03:56:06;19.47;;;7.07;;
3347;SDS011;1687;49.540;8.574;2023-03-01T04:02:13;13.37;;;4.90;;
3347;SDS011;1687;49.540;8.574;2023-03-01T04:04:46;9.57;;;4.07;;
3347;SDS011;1687;49.540;8.574;2023-03-01T04:07:16;11.00;;;6.37;;
3347;SDS011;1687;49.540;8.574;2023-03-01T04:09:42;8.87;;;5.70;;
3347;SDS011;1687;49.540;8.574;2023-03-01T04:12:09;7.37;;;4.63;;
3347;SDS011;1687;49.540;8.574;2023-03-01T04:14:35;7.50;;;4.70;;
3347;SDS011;1687;49.540;8.574;2023-03-01T04:17:01;13.67;;;5.70;;
3347;SDS011;1687;49.540;8.574;2023-03-01T04:19:30;17.03;;;5.57;;
3347;SDS011;1687;49.540;8.574;2023-03-01T04:22:01;19.93;;;6.47;;
3347;SDS011;1687;49.540;8.574;2023-03-01T04:24:34;19.43;;;6.67;;
3347;SDS011;1687;49.540;8.574;2023-03-01T04:27:00;11.80;;;4.43;;
3347;SDS011;1687;49.540;8.574;2023-03-01T04:29:27;9.97;;;5.70;;
3347;SDS011;1687;49.540;8.574;2023-03-01T04:31:52;14.47;;;8.10;;
3347;SDS011;1687;49.540;8.574;2023-03-01T04:34:18;13.67;;;6.57;;
3347;SDS011;1687;49.540;8.574;2023-03-01T04:36:44;15.20;;;7.77;;
3347;SDS011;1687;49.540;8.574;2023-03-01T04:39:09;14.90;;;7.43;;
3347;SDS011;1687;49.540;8.574;2023-03-01T04:41:39;18.50;;;6.40;;
3347;SDS011;1687;49.540;8.574;2023-03-01T04:44:06;16.60;;;7.43;;
3347;SDS011;1687;49.540;8.574;2023-03-01T04:46:34;20.33;;;6.33;;
3347;SDS011;1687;49.540;8.574;2023-03-01T04:49:00;18.63;;;7.03;;
3347;SDS011;1687;49.540;8.574;2023-03-01T04:51:26;10.90;;;6.20;;
3347;SDS011;1687;49.540;8.574;2023-03-01T04:53:51;12.97;;;4.97;;
3347;SDS011;1687;49.540;8.574;2023-03-01T04:56:17;9.67;;;7.07;;
3347;SDS011;1687;49.540;8.574;2023-03-01T04:58:43;15.70;;;6.00;;
3347;SDS011;1687;49.540;8.574;2023-03-01T05:01:14;17.60;;;6.80;;
3347;SDS011;1687;49.540;8.574;2023-03-01T05:03:44;16.57;;;6.17;;
3347;SDS011;1687;49.540;8.574;2023-03-01T05:06:16;18.57;;;5.80;;
3347;SDS011;1687;49.540;8.574;2023-03-01T05:08:43;22.93;;;8.53;;
3347;SDS011;1687;49.540;8.574;2023-03-01T05:11:10;12.70;;;7.43;;
3347;SDS011;1687;49.540;8.574;2023-03-01T05:13:36;16.83;;;6.13;;
3347;SDS011;1687;49.540;8.574;2023-03-01T05:16:03;21.60;;;7.20;;
3347;SDS011;1687;49.540;8.574;2023-03-01T05:18:31;12.40;;;5.07;;
3347;SDS011;1687;49.540;8.574;2023-03-01T05:21:06;19.30;;;7.40;;
3347;SDS011;1687;49.540;8.574;2023-03-01T05:23:37;13.93;;;7.43;;
3347;SDS011;1687;49.540;8.574;2023-03-01T05:26:04;20.43;;;7.70;;
3347;SDS011;1687;49.540;8.574;2023-03-01T05:28:31;11.67;;;6.37;;
3347;SDS011;1687;49.540;8.574;2023-03-01T05:30:58;16.60;;;7.10;;
3347;SDS011;1687;49.540;8.574;2023-03-01T05:33:24;30.83;;;9.00;;
3347;SDS011;1687;49.540;8.574;2023-03-01T05:35:51;13.13;;;6.77;;
3347;SDS011;1687;49.540;8.574;2023-03-01T05:38:18;38.00;;;10.43;;
3347;SDS011;1687;49.540;8.574;2023-03-01T05:40:45;13.80;;;5.30;;
3347;SDS011;1687;49.540;8.574;2023-03-01T05:43:14;12.20;;;7.27;;
3347;SDS011;1687;49.540;8.574;2023-03-01T05:45:41;17.53;;;7.67;;
3347;SDS011;1687;49.540;8.574;2023-03-01T05:48:08;20.43;;;8.93;;
3347;SDS011;1687;49.540;8.574;2023-03-01T05:50:36;16.17;;;7.13;;
3347;SDS011;1687;49.540;8.574;2023-03-01T05:53:06;11.30;;;6.70;;
3347;SDS011;1687;49.540;8.574;2023-03-01T05:55:36;16.23;;;9.23;;
3347;SDS011;1687;49.540;8.574;2023-03-01T05:58:03;18.97;;;8.30;;
3347;SDS011;1687;49.540;8.574;2023-03-01T06:00:31;16.87;;;7.23;;
3347;SDS011;1687;49.540;8.574;2023-03-01T06:02:57;15.77;;;7.93;;
3347;SDS011;1687;49.540;8.574;2023-03-01T06:05:24;16.03;;;6.83;;
3347;SDS011;1687;49.540;8.574;2023-03-01T06:07:50;17.60;;;7.60;;
3347;SDS011;1687;49.540;8.574;2023-03-01T06:10:18;18.13;;;9.03;;
3347;SDS011;1687;49.540;8.574;2023-03-01T06:12:46;20.87;;;5.97;;
3347;SDS011;1687;49.540;8.574;2023-03-01T06:15:13;21.73;;;7.47;;
3347;SDS011;1687;49.540;8.574;2023-03-01T06:17:41;18.57;;;6.43;;
3347;SDS011;1687;49.540;8.574;2023-03-01T06:20:13;16.80;;;6.67;;
3347;SDS011;1687;49.540;8.574;2023-03-01T06:22:42;10.60;;;5.70;;
3347;SDS011;1687;49.540;8.574;2023-03-01T06:25:14;15.17;;;7.10;;
3347;SDS011;1687;49.540;8.574;2023-03-01T06:27:43;24.27;;;6.00;;
3347;SDS011;1687;49.540;8.574;2023-03-01T06:30:09;14.43;;;6.90;;
3347;SDS011;1687;49.540;8.574;2023-03-01T06:32:37;12.87;;;6.37;;
3347;SDS011;1687;49.540;8.574;2023-03-01T06:35:07;18.07;;;7.03;;
3347;SDS011;1687;49.540;8.574;2023-03-01T06:37:34;21.00;;;8.20;;
3347;SDS011;1687;49.540;8.574;2023-03-01T06:40:00;14.33;;;6.20;;
3347;SDS011;1687;49.540;8.574;2023-03-01T06:42:32;17.03;;;7.57;;
3347;SDS011;1687;49.540;8.574;2023-03-01T06:45:03;20.73;;;7.97;;
3347;SDS011;1687;49.540;8.574;2023-03-01T06:47:31;20.93;;;7.37;;
3347;SDS011;1687;49.540;8.574;2023-03-01T06:49:58;20.77;;;7.77;;
3347;SDS011;1687;49.540;8.574;2023-03-01T06:52:25;18.50;;;7.93;;
3347;SDS011;1687;49.540;8.574;2023-03-01T06:54:51;17.10;;;7.17;;
3347;SDS011;1687;49.540;8.574;2023-03-01T06:57:17;16.43;;;7.70;;
3347;SDS011;1687;49.540;8.574;2023-03-01T06:59:42;13.57;;;6.00;;
3347;SDS011;1687;49.540;8.574;2023-03-01T07:02:12;14.27;;;7.00;;
3347;SDS011;1687;49.540;8.574;2023-03-01T07:04:38;13.27;;;5.93;;
3347;SDS011;1687;49.540;8.574;2023-03-01T07:07:04;15.87;;;5.93;;
3347;SDS011;1687;49.540;8.574;2023-03-01T07:09:30;18.13;;;7.00;;
3347;SDS011;1687;49.540;8.574;2023-03-01T07:11:56;16.63;;;8.00;;
3347;SDS011;1687;49.540;8.574;2023-03-01T07:14:23;16.33;;;7.47;;
3347;SDS011;1687;49.540;8.574;2023-03-01T07:16:52;15.63;;;6.93;;
3347;SDS011;1687;49.540;8.574;2023-03-01T07:19:18;19.97;;;6.20;;
3347;SDS011;1687;49.540;8.574;2023-03-01T07:21:45;13.37;;;8.03;;
3347;SDS011;1687;49.540;8.574;2023-03-01T07:24:10;15.20;;;7.53;;
3347;SDS011;1687;49.540;8.574;2023-03-01T07:26:36;13.73;;;7.10;;
3347;SDS011;1687;49.540;8.574;2023-03-01T07:29:03;14.53;;;5.60;;
3347;SDS011;1687;49.540;8.574;2023-03-01T07:31:30;19.83;;;6.77;;
3347;SDS011;1687;49.540;8.574;2023-03-01T07:33:56;13.47;;;6.93;;
3347;SDS011;1687;49.540;8.574;2023-03-01T07:36:22;13.33;;;5.77;;
3347;SDS011;1687;49.540;8.574;2023-03-01T07:38:48;23.50;;;8.43;;
3347;SDS011;1687;49.540;8.574;2023-03-01T07:41:14;17.27;;;6.97;;
3347;SDS011;1687;49.540;8.574;2023-03-01T07:43:40;24.33;;;8.63;;
3347;SDS011;1687;49.540;8.574;2023-03-01T07:46:06;14.00;;;7.20;;
3347;SDS011;1687;49.540;8.574;2023-03-01T07:48:32;26.07;;;9.77;;
3347;SDS011;1687;49.540;8.574;2023-03-01T07:51:01;13.63;;;8.10;;
3347;SDS011;1687;49.540;8.574;2023-03-01T07:53:30;23.30;;;7.93;;
3347;SDS011;1687;49.540;8.574;2023-03-01T07:56:00;15.33;;;7.47;;
3347;SDS011;1687;49.540;8.574;2023-03-01T07:58:27;18.97;;;8.43;;
3347;SDS011;1687;49.540;8.574;2023-03-01T08:00:53;18.93;;;7.37;;
3347;SDS011;1687;49.540;8.574;2023-03-01T08:03:19;17.27;;;8.33;;
3347;SDS011;1687;49.540;8.574;2023-03-01T08:05:44;22.70;;;9.77;;
3347;SDS011;1687;49.540;8.574;2023-03-01T08:08:10;14.33;;;7.10;;
3347;SDS011;1687;49.540;8.574;2023-03-01T08:10:36;22.07;;;9.37;;
3347;SDS011;1687;49.540;8.574;2023-03-01T08:13:01;15.37;;;7.40;;
3347;SDS011;1687;49.540;8.574;2023-03-01T08:15:27;13.70;;;7.40;;
3347;SDS011;1687;49.540;8.574;2023-03-01T08:17:53;27.30;;;6.60;;
3347;SDS011;1687;49.540;8.574;2023-03-01T08:20:18;20.00;;;7.80;;
3347;SDS011;1687;49.540;8.574;2023-03-01T08:22:44;19.80;;;9.10;;
3347;SDS011;1687;49.540;8.574;2023-03-01T08:25:10;20.80;;;7.43;;
3347;SDS011;1687;49.540;8.574;2023-03-01T08:27:35;14.33;;;7.13;;
3347;SDS011;1687;49.540;8.574;2023-03-01T08:30:01;23.93;;;9.87;;
3347;SDS011;1687;49.540;8.574;2023-03-01T08:32:27;27.53;;;8.87;;
3347;SDS011;1687;49.540;8.574;2023-03-01T08:34:53;12.97;;;7.80;;
3347;SDS011;1687;49.540;8.574;2023-03-01T08:37:19;21.13;;;8.87;;
3347;SDS011;1687;49.540;8.574;2023-03-01T08:39:44;15.13;;;7.73;;
3347;SDS011;1687;49.540;8.574;2023-03-01T08:42:11;18.70;;;7.17;;
3347;SDS011;1687;49.540;8.574;2023-03-01T08:44:37;16.47;;;8.03;;
3347;SDS011;1687;49.540;8.574;2023-03-01T08:47:03;22.20;;;9.93;;
3347;SDS011;1687;49.540;8.574;2023-03-01T08:49:29;17.53;;;7.00;;
3347;SDS011;1687;49.540;8.574;2023-03-01T08:51:57;25.50;;;8.93;;
3347;SDS011;1687;49.540;8.574;2023-03-01T08:54:23;17.60;;;8.30;;
3347;SDS011;1687;49.540;8.574;2023-03-01T08:56:48;27.37;;;8.40;;
3347;SDS011;1687;49.540;8.574;2023-03-01T08:59:15;30.70;;;9.97;;
3347;SDS011;1687;49.540;8.574;2023-03-01T09:01:42;23.17;;;8.93;;
3347;SDS011;1687;49.540;8.574;2023-03-01T09:04:08;15.30;;;6.70;;
3347;SDS011;1687;49.540;8.574;2023-03-01T09:06:35;17.17;;;8.50;;
3347;SDS011;1687;49.540;8.574;2023-03-01T09:09:02;21.90;;;8.33;;
3347;SDS011;1687;49.540;8.574;2023-03-01T09:11:29;23.50;;;9.97;;
3347;SDS011;1687;49.540;8.574;2023-03-01T09:13:55;22.80;;;9.80;;
3347;SDS011;1687;49.540;8.574;2023-03-01T09:16:22;16.10;;;8.83;;
3347;SDS011;1687;49.540;8.574;2023-03-01T09:18:51;18.50;;;7.73;;
3347;SDS011;1687;49.540;8.574;2023-03-01T09:21:19;24.83;;;10.50;;
3347;SDS011;1687;49.540;8.574;2023-03-01T09:23:47;15.93;;;8.60;;
3347;SDS011;1687;49.540;8.574;2023-03-01T09:26:15;18.43;;;8.40;;
3347;SDS011;1687;49.540;8.574;2023-03-01T09:28:47;20.23;;;8.67;;
3347;SDS011;1687;49.540;8.574;2023-03-01T09:31:16;20.07;;;11.07;;
3347;SDS011;1687;49.540;8.574;2023-03-01T09:33:45;21.30;;;9.77;;
3347;SDS011;1687;49.540;8.574;2023-03-01T09:36:14;21.87;;;8.73;;
3347;SDS011;1687;49.540;8.574;2023-03-01T09:38:43;26.80;;;10.77;;
3347;SDS011;1687;49.540;8.574;2023-03-01T09:43:56;22.03;;;10.47;;
3347;SDS011;1687;49.540;8.574;2023-03-01T09:46:29;22.73;;;9.17;;
3347;SDS011;1687;49.540;8.574;2023-03-01T09:49:05;23.90;;;9.40;;
3347;SDS011;1687;49.540;8.574;2023-03-01T09:51:42;22.20;;;9.67;;
3347;SDS011;1687;49.540;8.574;2023-03-01T09:54:35;27.07;;;9.90;;
3347;SDS011;1687;49.540;8.574;2023-03-01T09:57:06;19.70;;;8.53;;
3347;SDS011;1687;49.540;8.574;2023-03-01T09:59:47;27.83;;;10.47;;
3347;SDS011;1687;49.540;8.574;2023-03-01T10:10:44;21.00;;;8.30;;
3347;SDS011;1687;49.540;8.574;2023-03-01T10:15:54;22.40;;;10.77;;
3347;SDS011;1687;49.540;8.574;2023-03-01T10:18:34;25.00;;;9.70;;
3347;SDS011;1687;49.540;8.574;2023-03-01T10:21:07;16.13;;;8.00;;
3347;SDS011;1687;49.540;8.574;2023-03-01T10:23:43;31.77;;;11.43;;
3347;SDS011;1687;49.540;8.574;2023-03-01T10:26:14;22.37;;;10.40;;
3347;SDS011;1687;49.540;8.574;2023-03-01T10:28:57;19.30;;;10.53;;
3347;SDS011;1687;49.540;8.574;2023-03-01T10:34:18;31.33;;;12.53;;
3347;SDS011;1687;49.540;8.574;2023-03-01T10:36:57;32.40;;;10.83;;
3347;SDS011;1687;49.540;8.574;2023-03-01T10:39:34;23.67;;;10.00;;
3347;SDS011;1687;49.540;8.574;2023-03-01T10:42:01;20.63;;;10.10;;
3347;SDS011;1687;49.540;8.574;2023-03-01T10:49:51;27.00;;;11.13;;
3347;SDS011;1687;49.540;8.574;2023-03-01T10:52:37;22.23;;;11.00;;
3347;SDS011;1687;49.540;8.574;2023-03-01T10:58:05;25.73;;;13.70;;
3347;SDS011;1687;49.540;8.574;2023-03-01T11:00:48;23.07;;;10.70;;
3347;SDS011;1687;49.540;8.574;2023-03-01T11:03:27;24.17;;;9.73;;
3347;SDS011;1687;49.540;8.574;2023-03-01T11:05:59;25.40;;;10.60;;
3347;SDS011;1687;49.540;8.574;2023-03-01T11:08:30;26.03;;;10.87;;
3347;SDS011;1687;49.540;8.574;2023-03-01T11:13:52;23.47;;;9.13;;
3347;SDS011;1687;49.540;8.574;2023-03-01T11:16:29;25.23;;;10.43;;
3347;SDS011;1687;49.540;8.574;2023-03-01T11:19:12;23.53;;;10.20;;
3347;SDS011;1687;49.540;8.574;2023-03-01T11:24:47;28.50;;;10.90;;
3347;SDS011;1687;49.540;8.574;2023-03-01T11:29:53;26.17;;;9.87;;
3347;SDS011;1687;49.540;8.574;2023-03-01T11:36:22;19.30;;;9.30;;
3347;SDS011;1687;49.540;8.574;2023-03-01T11:38:50;21.27;;;9.27;;
3347;SDS011;1687;49.540;8.574;2023-03-01T11:41:20;21.33;;;9.33;;
3347;SDS011;1687;49.540;8.574;2023-03-01T11:43:55;18.10;;;9.73;;
3347;SDS011;1687;49.540;8.574;2023-03-01T11:51:53;21.43;;;11.47;;
3347;SDS011;1687;49.540;8.574;2023-03-01T12:00:05;32.43;;;11.20;;
3347;SDS011;1687;49.540;8.574;2023-03-01T12:11:47;27.53;;;10.23;;
3347;SDS011;1687;49.540;8.574;2023-03-01T12:14:47;24.70;;;10.17;;
3347;SDS011;1687;49.540;8.574;2023-03-01T12:25:45;24.30;;;10.00;;
3347;SDS011;1687;49.540;8.574;2023-03-01T12:28:26;23.27;;;9.33;;
3347;SDS011;1687;49.540;8.574;2023-03-01T12:34:21;21.87;;;10.30;;
3347;SDS011;1687;49.540;8.574;2023-03-01T12:37:36;20.23;;;10.40;;
3347;SDS011;1687;49.540;8.574;2023-03-01T12:40:15;21.53;;;9.00;;
3347;SDS011;1687;49.540;8.574;2023-03-01T12:46:10;22.73;;;9.77;;
3347;SDS011;1687;49.540;8.574;2023-03-01T12:51:51;24.03;;;9.83;;
3347;SDS011;1687;49.540;8.574;2023-03-01T12:54:28;25.90;;;9.23;;
3347;SDS011;1687;49.540;8.574;2023-03-01T12:56:57;22.07;;;10.63;;
3347;SDS011;1687;49.540;8.574;2023-03-01T12:59:42;20.13;;;9.07;;
3347;SDS011;1687;49.540;8.574;2023-03-01T13:02:19;21.33;;;8.60;;
3347;SDS011;1687;49.540;8.574;2023-03-01T13:07:51;21.87;;;10.17;;
3347;SDS011;1687;49.540;8.574;2023-03-01T13:10:36;19.70;;;8.10;;
3347;SDS011;1687;49.540;8.574;2023-03-01T13:13:14;18.13;;;8.60;;
3347;SDS011;1687;49.540;8.574;2023-03-01T13:15:47;19.30;;;8.93;;
3347;SDS011;1687;49.540;8.574;2023-03-01T13:31:11;17.90;;;9.20;;
3347;SDS011;1687;49.540;8.574;2023-03-01T13:33:55;19.30;;;9.57;;
3347;SDS011;1687;49.540;8.574;2023-03-01T13:37:08;17.57;;;7.47;;
3347;SDS011;1687;49.540;8.574;2023-03-01T13:41:50;12.83;;;6.03;;
3347;SDS011;1687;49.540;8.574;2023-03-01T13:49:29;15.60;;;7.30;;
3347;SDS011;1687;49.540;8.574;2023-03-01T13:52:44;19.57;;;8.30;;
3347;SDS011;1687;49.540;8.574;2023-03-01T13:55:19;19.60;;;9.47;;
3347;SDS011;1687;49.540;8.574;2023-03-01T13:57:54;25.93;;;9.00;;
3347;SDS011;1687;49.540;8.574;2023-03-01T14:05:57;26.30;;;9.83;;
3347;SDS011;1687;49.540;8.574;2023-03-01T14:08:26;18.03;;;6.87;;
3347;SDS011;1687;49.540;8.574;2023-03-01T14:10:58;18.70;;;8.53;;
3347;SDS011;1687;49.540;8.574;2023-03-01T14:13:54;18.17;;;8.63;;
3347;SDS011;1687;49.540;8.574;2023-03-01T14:20:09;27.60;;;9.83;;
3347;SDS011;1687;49.540;8.574;2023-03-01T14:22:44;33.33;;;8.93;;
3347;SDS011;1687;49.540;8.574;2023-03-01T14:25:31;16.27;;;8.97;;
3347;SDS011;1687;49.540;8.574;2023-03-01T14:30:41;15.10;;;7.63;;
3347;SDS011;1687;49.540;8.574;2023-03-01T14:33:20;19.47;;;8.20;;
3347;SDS011;1687;49.540;8.574;2023-03-01T14:38:31;22.77;;;8.13;;
3347;SDS011;1687;49.540;8.574;2023-03-01T14:41:09;17.80;;;7.10;;
3347;SDS011;1687;49.540;8.574;2023-03-01T14:43:44;19.63;;;7.70;;
3347;SDS011;1687;49.540;8.574;2023-03-01T14:46:20;32.33;;;10.23;;
3347;SDS011;1687;49.540;8.574;2023-03-01T14:48:54;17.70;;;8.63;;
3347;SDS011;1687;49.540;8.574;2023-03-01T14:51:27;20.30;;;8.47;;
3347;SDS011;1687;49.540;8.574;2023-03-01T14:53:53;18.00;;;9.77;;
3347;SDS011;1687;49.540;8.574;2023-03-01T14:56:20;24.30;;;8.90;;
3347;SDS011;1687;49.540;8.574;2023-03-01T14:58:46;22.83;;;9.70;;
3347;SDS011;1687;49.540;8.574;2023-03-01T15:01:16;21.87;;;9.23;;
3347;SDS011;1687;49.540;8.574;2023-03-01T15:03:47;22.17;;;9.07;;
3347;SDS011;1687;49.540;8.574;2023-03-01T15:06:15;23.47;;;8.70;;
3347;SDS011;1687;49.540;8.574;2023-03-01T15:08:53;15.03;;;7.90;;
3347;SDS011;1687;49.540;8.574;2023-03-01T15:13:50;20.50;;;8.00;;
3347;SDS011;1687;49.540;8.574;2023-03-01T15:16:18;17.43;;;8.80;;
3347;SDS011;1687;49.540;8.574;2023-03-01T15:18:49;15.00;;;8.10;;
3347;SDS011;1687;49.540;8.574;2023-03-01T15:21:23;17.13;;;8.17;;
3347;SDS011;1687;49.540;8.574;2023-03-01T15:23:54;17.63;;;7.80;;
3347;SDS011;1687;49.540;8.574;2023-03-01T15:26:44;18.10;;;8.63;;
3347;SDS011;1687;49.540;8.574;2023-03-01T15:29:23;14.47;;;7.13;;
3347;SDS011;1687;49.540;8.574;2023-03-01T15:31:55;18.73;;;8.80;;
3347;SDS011;1687;49.540;8.574;2023-03-01T15:34:29;15.00;;;7.93;;
3347;SDS011;1687;49.540;8.574;2023-03-01T15:37:02;15.43;;;7.57;;
3347;SDS011;1687;49.540;8.574;2023-03-01T15:44:40;19.60;;;8.17;;
3347;SDS011;1687;49.540;8.574;2023-03-01T15:49:56;12.37;;;6.50;;
3347;SDS011;1687;49.540;8.574;2023-03-01T15:52:24;12.63;;;6.70;;
3347;SDS011;1687;49.540;8.574;2023-03-01T15:55:02;14.33;;;7.53;;
3347;SDS011;1687;49.540;8.574;2023-03-01T15:57:31;13.80;;;7.80;;
3347;SDS011;1687;49.540;8.574;2023-03-01T15:59:57;16.50;;;8.00;;
3347;SDS011;1687;49.540;8.574;2023-03-01T16:02:23;17.13;;;7.40;;
3347;SDS011;1687;49.540;8.574;2023-03-01T16:04:49;16.87;;;7.50;;
3347;SDS011;1687;49.540;8.574;2023-03-01T16:07:16;17.33;;;7.53;;
3347;SDS011;1687;49.540;8.574;2023-03-01T16:09:42;21.53;;;7.57;;
3347;SDS011;1687;49.540;8.574;2023-03-01T16:12:12;15.03;;;7.80;;
3347;SDS011;1687;49.540;8.574;2023-03-01T16:14:41;17.33;;;7.43;;
3347;SDS011;1687;49.540;8.574;2023-03-01T16:17:07;20.90;;;9.27;;
3347;SDS011;1687;49.540;8.574;2023-03-01T16:19:35;21.93;;;9.20;;
3347;SDS011;1687;49.540;8.574;2023-03-01T16:22:02;18.50;;;7.53;;
3347;SDS011;1687;49.540;8.574;2023-03-01T16:24:28;14.07;;;6.63;;
3347;SDS011;1687;49.540;8.574;2023-03-01T16:26:54;25.33;;;7.17;;
3347;SDS011;1687;49.540;8.574;2023-03-01T16:29:20;20.37;;;8.50;;
3347;SDS011;1687;49.540;8.574;2023-03-01T16:31:46;14.53;;;7.40;;
3347;SDS011;1687;49.540;8.574;2023-03-01T16:34:12;14.77;;;7.60;;
3347;SDS011;1687;49.540;8.574;2023-03-01T16:36:38;16.23;;;7.53;;
3347;SDS011;1687;49.540;8.574;2023-03-01T16:39:04;12.03;;;5.53;;
3347;SDS011;1687;49.540;8.574;2023-03-01T16:41:29;17.37;;;7.83;;
3347;SDS011;1687;49.540;8.574;2023-03-01T16:43:55;13.23;;;6.97;;
3347;SDS011;1687;49.540;8.574;2023-03-01T16:46:22;28.63;;;9.53;;
3347;SDS011;1687;49.540;8.574;2023-03-01T16:48:53;15.97;;;8.03;;
3347;SDS011;1687;49.540;8.574;2023-03-01T16:51:21;18.83;;;8.40;;
3347;SDS011;1687;49.540;8.574;2023-03-01T16:53:48;21.13;;;8.07;;
3347;SDS011;1687;49.540;8.574;2023-03-01T16:56:14;14.10;;;6.40;;
3347;SDS011;1687;49.540;8.574;2023-03-01T16:58:41;18.10;;;7.97;;
3347;SDS011;1687;49.540;8.574;2023-03-01T17:01:17;12.87;;;6.10;;
3347;SDS011;1687;49.540;8.574;2023-03-01T17:03:45;16.30;;;6.90;;
3347;SDS011;1687;49.540;8.574;2023-03-01T17:06:13;20.03;;;9.10;;
3347;SDS011;1687;49.540;8.574;2023-03-01T17:08:42;15.13;;;6.80;;
3347;SDS011;1687;49.540;8.574;2023-03-01T17:11:09;17.43;;;7.10;;
3347;SDS011;1687;49.540;8.574;2023-03-01T17:13:40;27.53;;;7.00;;
3347;SDS011;1687;49.540;8.574;2023-03-01T17:16:07;29.37;;;13.07;;
3347;SDS011;1687;49.540;8.574;2023-03-01T17:18:35;24.10;;;8.23;;
3347;SDS011;1687;49.540;8.574;2023-03-01T17:21:02;11.97;;;6.77;;
3347;SDS011;1687;49.540;8.574;2023-03-01T17:23:29;17.23;;;7.43;;
3347;SDS011;1687;49.540;8.574;2023-03-01T17:25:57;20.73;;;7.37;;
3347;SDS011;1687;49.540;8.574;2023-03-01T17:28:24;16.00;;;7.80;;
3347;SDS011;1687;49.540;8.574;2023-03-01T17:30:52;14.70;;;6.80;;
3347;SDS011;1687;49.540;8.574;2023-03-01T17:33:18;20.40;;;9.03;;
3347;SDS011;1687;49.540;8.574;2023-03-01T17:35:45;19.57;;;8.30;;
3347;SDS011;1687;49.540;8.574;2023-03-01T17:38:12;24.97;;;8.23;;
3347;SDS011;1687;49.540;8.574;2023-03-01T17:40:42;24.67;;;9.43;;
3347;SDS011;1687;49.540;8.574;2023-03-01T17:43:12;16.37;;;8.53;;